Terminal Aerodrome Forecast
Issued by NWS

Home | Current Version | Previous Version | Text Only | Print | Product List | Glossary On
Versions: 1 2 3 4 5 6 7 8 9 10 11 12 13 14 15
000
FTUS43 KMQT 252338
TAFIWD
TAF
KIWD 252338Z 2600/2624 26007KT P6SM VCSH SCT025 BKN035
      TEMPO 2600/2604 SCT015 BKN025
     FM260400 25004KT P6SM BKN008 OVC015
     FM260600 23003KT 4SM BR OVC004
     FM261500 32004KT P6SM BKN010
     FM261900 34005KT P6SM VCSH BKN025
      AMD LTD TO CLD VIS AND WIND=

USA.gov is the U.S. government's official web portal to all federal, state and local government web resources and services.